Salem, New Hampshire
Current Conditions -  °F | °C
As of 12:54 PM on Sunday 21 Dec 2014 (Local Time) from KLWM Reporting Station
Overcast Overcast  
Wind Chill: 29°   Ceiling: 1800
Heat Index: 33°   Visibility: 10mi
Dew Point: 24°   Wind: 5mph
Humidity: 70%   Direction: 10°N
Pressure: 30.32"   Gusts: NA
Location:  42.79°N, 71.2°W
Report Text: KLWM 211754Z 01004KT 10SM OVC018 01/M04 A3032 RMK AO2 SLP268 T00061044 10006 21028 56015
Loading
Personal Weather Stations






























Interactive Weather Map New forecast layout! Learn more

10-Day Weather Forecast

Advertisements
Track Severe Weather on mobile